sensor_id;sensor_type;location;lat;lon;timestamp;P1;durP1;ratioP1;P2;durP2;ratioP2
60726;SDS011;46577;49.004;12.120;2023-11-21T00:02:19;11.60;;;4.10;;
60726;SDS011;46577;49.004;12.120;2023-11-21T00:04:46;8.23;;;3.20;;
60726;SDS011;46577;49.004;12.120;2023-11-21T00:07:12;13.53;;;3.67;;
60726;SDS011;46577;49.004;12.120;2023-11-21T00:09:39;11.53;;;3.93;;
60726;SDS011;46577;49.004;12.120;2023-11-21T00:12:06;9.27;;;3.43;;
60726;SDS011;46577;49.004;12.120;2023-11-21T00:14:35;8.33;;;3.17;;
60726;SDS011;46577;49.004;12.120;2023-11-21T00:17:01;15.80;;;3.73;;
60726;SDS011;46577;49.004;12.120;2023-11-21T00:19:27;10.63;;;3.80;;
60726;SDS011;46577;49.004;12.120;2023-11-21T00:21:53;8.60;;;3.10;;
60726;SDS011;46577;49.004;12.120;2023-11-21T00:24:19;7.90;;;3.70;;
60726;SDS011;46577;49.004;12.120;2023-11-21T00:26:45;12.27;;;4.23;;
60726;SDS011;46577;49.004;12.120;2023-11-21T00:29:13;12.40;;;3.73;;
60726;SDS011;46577;49.004;12.120;2023-11-21T00:31:42;9.47;;;4.20;;
60726;SDS011;46577;49.004;12.120;2023-11-21T00:34:08;9.93;;;3.70;;
60726;SDS011;46577;49.004;12.120;2023-11-21T00:36:34;6.97;;;3.60;;
60726;SDS011;46577;49.004;12.120;2023-11-21T00:39:00;11.40;;;3.53;;
60726;SDS011;46577;49.004;12.120;2023-11-21T00:41:28;9.77;;;4.00;;
60726;SDS011;46577;49.004;12.120;2023-11-21T00:43:54;11.73;;;3.47;;
60726;SDS011;46577;49.004;12.120;2023-11-21T00:46:20;10.10;;;3.70;;
60726;SDS011;46577;49.004;12.120;2023-11-21T00:48:47;11.17;;;4.53;;
60726;SDS011;46577;49.004;12.120;2023-11-21T00:51:13;8.77;;;3.50;;
60726;SDS011;46577;49.004;12.120;2023-11-21T00:53:39;13.20;;;3.60;;
60726;SDS011;46577;49.004;12.120;2023-11-21T00:56:05;7.40;;;3.40;;
60726;SDS011;46577;49.004;12.120;2023-11-21T00:58:31;12.07;;;3.73;;
60726;SDS011;46577;49.004;12.120;2023-11-21T01:00:57;8.93;;;4.17;;
60726;SDS011;46577;49.004;12.120;2023-11-21T01:03:24;11.50;;;3.20;;
60726;SDS011;46577;49.004;12.120;2023-11-21T01:05:50;7.33;;;3.03;;
60726;SDS011;46577;49.004;12.120;2023-11-21T01:08:16;9.43;;;3.60;;
60726;SDS011;46577;49.004;12.120;2023-11-21T01:10:42;7.63;;;3.70;;
60726;SDS011;46577;49.004;12.120;2023-11-21T01:13:08;18.73;;;4.10;;
60726;SDS011;46577;49.004;12.120;2023-11-21T01:15:34;16.30;;;4.07;;
60726;SDS011;46577;49.004;12.120;2023-11-21T01:18:00;8.40;;;3.50;;
60726;SDS011;46577;49.004;12.120;2023-11-21T01:20:26;11.10;;;3.93;;
60726;SDS011;46577;49.004;12.120;2023-11-21T01:22:51;10.97;;;4.30;;
60726;SDS011;46577;49.004;12.120;2023-11-21T01:25:18;12.60;;;4.40;;
60726;SDS011;46577;49.004;12.120;2023-11-21T01:27:46;7.67;;;3.47;;
60726;SDS011;46577;49.004;12.120;2023-11-21T01:30:12;6.53;;;3.50;;
60726;SDS011;46577;49.004;12.120;2023-11-21T01:32:39;10.23;;;3.47;;
60726;SDS011;46577;49.004;12.120;2023-11-21T01:35:05;14.33;;;3.90;;
60726;SDS011;46577;49.004;12.120;2023-11-21T01:37:32;11.40;;;4.10;;
60726;SDS011;46577;49.004;12.120;2023-11-21T01:39:58;12.20;;;4.20;;
60726;SDS011;46577;49.004;12.120;2023-11-21T01:42:26;15.50;;;5.17;;
60726;SDS011;46577;49.004;12.120;2023-11-21T01:44:54;15.17;;;3.93;;
60726;SDS011;46577;49.004;12.120;2023-11-21T01:47:20;13.10;;;3.57;;
60726;SDS011;46577;49.004;12.120;2023-11-21T01:49:46;13.97;;;3.10;;
60726;SDS011;46577;49.004;12.120;2023-11-21T01:52:13;9.40;;;3.33;;
60726;SDS011;46577;49.004;12.120;2023-11-21T01:54:39;5.60;;;2.70;;
60726;SDS011;46577;49.004;12.120;2023-11-21T01:57:07;7.63;;;3.27;;
60726;SDS011;46577;49.004;12.120;2023-11-21T01:59:34;5.53;;;2.70;;
60726;SDS011;46577;49.004;12.120;2023-11-21T02:02:01;9.00;;;2.80;;
60726;SDS011;46577;49.004;12.120;2023-11-21T02:04:29;8.53;;;3.20;;
60726;SDS011;46577;49.004;12.120;2023-11-21T02:06:56;8.20;;;3.43;;
60726;SDS011;46577;49.004;12.120;2023-11-21T02:09:24;6.37;;;2.60;;
60726;SDS011;46577;49.004;12.120;2023-11-21T02:11:50;7.13;;;2.67;;
60726;SDS011;46577;49.004;12.120;2023-11-21T02:14:16;9.27;;;2.63;;
60726;SDS011;46577;49.004;12.120;2023-11-21T02:16:45;5.70;;;2.70;;
60726;SDS011;46577;49.004;12.120;2023-11-21T02:19:14;8.07;;;2.90;;
60726;SDS011;46577;49.004;12.120;2023-11-21T02:21:41;9.27;;;2.40;;
60726;SDS011;46577;49.004;12.120;2023-11-21T02:24:09;8.10;;;2.90;;
60726;SDS011;46577;49.004;12.120;2023-11-21T02:26:35;4.83;;;3.10;;
60726;SDS011;46577;49.004;12.120;2023-11-21T02:29:01;11.67;;;3.30;;
60726;SDS011;46577;49.004;12.120;2023-11-21T02:31:29;14.33;;;3.23;;
60726;SDS011;46577;49.004;12.120;2023-11-21T02:33:57;10.27;;;3.33;;
60726;SDS011;46577;49.004;12.120;2023-11-21T02:36:23;5.73;;;2.97;;
60726;SDS011;46577;49.004;12.120;2023-11-21T02:38:50;14.03;;;3.33;;
60726;SDS011;46577;49.004;12.120;2023-11-21T02:41:16;11.10;;;3.70;;
60726;SDS011;46577;49.004;12.120;2023-11-21T02:43:42;10.37;;;3.40;;
60726;SDS011;46577;49.004;12.120;2023-11-21T02:46:08;8.20;;;3.13;;
60726;SDS011;46577;49.004;12.120;2023-11-21T02:48:34;5.27;;;3.10;;
60726;SDS011;46577;49.004;12.120;2023-11-21T02:51:01;9.43;;;3.00;;
60726;SDS011;46577;49.004;12.120;2023-11-21T02:53:27;11.40;;;3.23;;
60726;SDS011;46577;49.004;12.120;2023-11-21T02:55:53;7.00;;;3.00;;
60726;SDS011;46577;49.004;12.120;2023-11-21T02:58:19;12.43;;;2.90;;
60726;SDS011;46577;49.004;12.120;2023-11-21T03:00:45;7.13;;;2.87;;
60726;SDS011;46577;49.004;12.120;2023-11-21T03:03:11;9.33;;;2.90;;
60726;SDS011;46577;49.004;12.120;2023-11-21T03:05:39;12.00;;;3.33;;
60726;SDS011;46577;49.004;12.120;2023-11-21T03:08:05;8.90;;;3.93;;
60726;SDS011;46577;49.004;12.120;2023-11-21T03:10:31;9.60;;;3.40;;
60726;SDS011;46577;49.004;12.120;2023-11-21T03:12:58;8.27;;;3.30;;
60726;SDS011;46577;49.004;12.120;2023-11-21T03:15:24;9.17;;;3.70;;
60726;SDS011;46577;49.004;12.120;2023-11-21T03:17:50;16.63;;;3.50;;
60726;SDS011;46577;49.004;12.120;2023-11-21T03:20:16;8.17;;;3.70;;
60726;SDS011;46577;49.004;12.120;2023-11-21T03:22:42;19.17;;;2.97;;
60726;SDS011;46577;49.004;12.120;2023-11-21T03:25:08;14.10;;;3.90;;
60726;SDS011;46577;49.004;12.120;2023-11-21T03:27:36;7.83;;;3.93;;
60726;SDS011;46577;49.004;12.120;2023-11-21T03:30:03;9.90;;;3.40;;
60726;SDS011;46577;49.004;12.120;2023-11-21T03:32:31;11.20;;;4.13;;
60726;SDS011;46577;49.004;12.120;2023-11-21T03:34:58;8.80;;;5.13;;
60726;SDS011;46577;49.004;12.120;2023-11-21T03:37:24;16.73;;;5.13;;
60726;SDS011;46577;49.004;12.120;2023-11-21T03:39:52;5.30;;;3.30;;
60726;SDS011;46577;49.004;12.120;2023-11-21T03:42:18;8.70;;;4.00;;
60726;SDS011;46577;49.004;12.120;2023-11-21T03:44:44;12.73;;;5.10;;
60726;SDS011;46577;49.004;12.120;2023-11-21T03:47:10;6.50;;;3.70;;
60726;SDS011;46577;49.004;12.120;2023-11-21T03:49:37;12.57;;;4.00;;
60726;SDS011;46577;49.004;12.120;2023-11-21T03:52:03;9.50;;;4.20;;
60726;SDS011;46577;49.004;12.120;2023-11-21T03:54:29;9.43;;;3.60;;
60726;SDS011;46577;49.004;12.120;2023-11-21T03:56:55;11.77;;;4.33;;
60726;SDS011;46577;49.004;12.120;2023-11-21T03:59:21;25.23;;;4.17;;
60726;SDS011;46577;49.004;12.120;2023-11-21T04:01:49;12.87;;;3.90;;
60726;SDS011;46577;49.004;12.120;2023-11-21T04:04:15;9.70;;;4.33;;
60726;SDS011;46577;49.004;12.120;2023-11-21T04:06:41;17.10;;;4.10;;
60726;SDS011;46577;49.004;12.120;2023-11-21T04:09:07;9.93;;;4.30;;
60726;SDS011;46577;49.004;12.120;2023-11-21T04:11:33;19.27;;;4.73;;
60726;SDS011;46577;49.004;12.120;2023-11-21T04:13:59;9.90;;;4.80;;
60726;SDS011;46577;49.004;12.120;2023-11-21T04:16:25;14.70;;;5.07;;
60726;SDS011;46577;49.004;12.120;2023-11-21T04:18:51;15.50;;;6.17;;
60726;SDS011;46577;49.004;12.120;2023-11-21T04:21:17;19.13;;;6.40;;
60726;SDS011;46577;49.004;12.120;2023-11-21T04:23:43;13.83;;;5.70;;
60726;SDS011;46577;49.004;12.120;2023-11-21T04:26:09;22.07;;;6.47;;
60726;SDS011;46577;49.004;12.120;2023-11-21T04:28:35;14.93;;;5.90;;
60726;SDS011;46577;49.004;12.120;2023-11-21T04:31:01;17.73;;;5.63;;
60726;SDS011;46577;49.004;12.120;2023-11-21T04:33:27;17.13;;;7.37;;
60726;SDS011;46577;49.004;12.120;2023-11-21T04:35:54;13.40;;;5.53;;
60726;SDS011;46577;49.004;12.120;2023-11-21T04:38:20;13.80;;;5.50;;
60726;SDS011;46577;49.004;12.120;2023-11-21T04:40:46;13.20;;;6.23;;
60726;SDS011;46577;49.004;12.120;2023-11-21T04:43:12;13.77;;;6.70;;
60726;SDS011;46577;49.004;12.120;2023-11-21T04:45:37;20.87;;;6.63;;
60726;SDS011;46577;49.004;12.120;2023-11-21T04:48:05;12.50;;;6.00;;
60726;SDS011;46577;49.004;12.120;2023-11-21T04:50:31;14.33;;;5.50;;
60726;SDS011;46577;49.004;12.120;2023-11-21T04:52:57;16.80;;;6.73;;
60726;SDS011;46577;49.004;12.120;2023-11-21T04:55:23;14.47;;;6.37;;
60726;SDS011;46577;49.004;12.120;2023-11-21T04:57:53;13.83;;;6.43;;
60726;SDS011;46577;49.004;12.120;2023-11-21T05:00:19;7.83;;;6.10;;
60726;SDS011;46577;49.004;12.120;2023-11-21T05:02:46;17.43;;;6.00;;
60726;SDS011;46577;49.004;12.120;2023-11-21T05:05:12;15.23;;;5.53;;
60726;SDS011;46577;49.004;12.120;2023-11-21T05:07:39;22.87;;;5.87;;
60726;SDS011;46577;49.004;12.120;2023-11-21T05:10:06;14.47;;;5.43;;
60726;SDS011;46577;49.004;12.120;2023-11-21T05:12:35;10.80;;;5.27;;
60726;SDS011;46577;49.004;12.120;2023-11-21T05:15:03;14.37;;;5.80;;
60726;SDS011;46577;49.004;12.120;2023-11-21T05:17:32;14.43;;;5.20;;
60726;SDS011;46577;49.004;12.120;2023-11-21T05:19:59;12.50;;;5.20;;
60726;SDS011;46577;49.004;12.120;2023-11-21T05:22:28;20.33;;;5.63;;
60726;SDS011;46577;49.004;12.120;2023-11-21T05:24:54;16.50;;;5.43;;
60726;SDS011;46577;49.004;12.120;2023-11-21T05:27:20;10.53;;;5.33;;
60726;SDS011;46577;49.004;12.120;2023-11-21T05:29:46;19.23;;;4.80;;
60726;SDS011;46577;49.004;12.120;2023-11-21T05:32:12;10.33;;;4.80;;
60726;SDS011;46577;49.004;12.120;2023-11-21T05:34:38;13.63;;;4.83;;
60726;SDS011;46577;49.004;12.120;2023-11-21T05:37:05;12.43;;;4.77;;
60726;SDS011;46577;49.004;12.120;2023-11-21T05:39:31;8.93;;;5.00;;
60726;SDS011;46577;49.004;12.120;2023-11-21T05:41:57;18.60;;;6.70;;
60726;SDS011;46577;49.004;12.120;2023-11-21T05:44:25;14.37;;;5.10;;
60726;SDS011;46577;49.004;12.120;2023-11-21T05:46:51;14.93;;;5.13;;
60726;SDS011;46577;49.004;12.120;2023-11-21T05:49:17;11.30;;;4.70;;
60726;SDS011;46577;49.004;12.120;2023-11-21T05:51:46;14.73;;;5.83;;
60726;SDS011;46577;49.004;12.120;2023-11-21T05:54:13;14.50;;;5.20;;
60726;SDS011;46577;49.004;12.120;2023-11-21T05:56:39;27.07;;;6.30;;
60726;SDS011;46577;49.004;12.120;2023-11-21T05:59:05;8.57;;;5.23;;
60726;SDS011;46577;49.004;12.120;2023-11-21T06:01:31;10.47;;;5.13;;
60726;SDS011;46577;49.004;12.120;2023-11-21T06:03:57;12.77;;;5.00;;
60726;SDS011;46577;49.004;12.120;2023-11-21T06:06:24;8.30;;;5.03;;
60726;SDS011;46577;49.004;12.120;2023-11-21T06:08:50;9.67;;;6.00;;
60726;SDS011;46577;49.004;12.120;2023-11-21T06:11:16;12.73;;;5.90;;
60726;SDS011;46577;49.004;12.120;2023-11-21T06:13:43;23.67;;;6.40;;
60726;SDS011;46577;49.004;12.120;2023-11-21T06:16:09;13.53;;;7.30;;
60726;SDS011;46577;49.004;12.120;2023-11-21T06:18:35;14.53;;;6.77;;
60726;SDS011;46577;49.004;12.120;2023-11-21T06:21:01;13.60;;;5.20;;
60726;SDS011;46577;49.004;12.120;2023-11-21T06:23:27;14.53;;;6.10;;
60726;SDS011;46577;49.004;12.120;2023-11-21T06:25:53;13.20;;;5.90;;
60726;SDS011;46577;49.004;12.120;2023-11-21T06:28:19;8.43;;;5.60;;
60726;SDS011;46577;49.004;12.120;2023-11-21T06:30:45;14.70;;;5.03;;
60726;SDS011;46577;49.004;12.120;2023-11-21T06:33:11;15.83;;;7.07;;
60726;SDS011;46577;49.004;12.120;2023-11-21T06:35:38;15.97;;;6.00;;
60726;SDS011;46577;49.004;12.120;2023-11-21T06:38:04;18.57;;;7.63;;
60726;SDS011;46577;49.004;12.120;2023-11-21T06:40:30;12.57;;;6.17;;
60726;SDS011;46577;49.004;12.120;2023-11-21T06:42:58;19.17;;;6.63;;
60726;SDS011;46577;49.004;12.120;2023-11-21T06:45:25;14.07;;;6.00;;
60726;SDS011;46577;49.004;12.120;2023-11-21T06:47:51;15.10;;;6.77;;
60726;SDS011;46577;49.004;12.120;2023-11-21T06:50:18;13.43;;;6.17;;
60726;SDS011;46577;49.004;12.120;2023-11-21T06:52:44;12.40;;;6.30;;
60726;SDS011;46577;49.004;12.120;2023-11-21T06:55:10;14.00;;;6.30;;
60726;SDS011;46577;49.004;12.120;2023-11-21T06:57:36;12.00;;;4.93;;
60726;SDS011;46577;49.004;12.120;2023-11-21T07:00:03;12.30;;;6.10;;
60726;SDS011;46577;49.004;12.120;2023-11-21T07:02:30;12.23;;;5.87;;
60726;SDS011;46577;49.004;12.120;2023-11-21T07:04:56;11.27;;;6.40;;
60726;SDS011;46577;49.004;12.120;2023-11-21T07:07:22;13.50;;;7.00;;
60726;SDS011;46577;49.004;12.120;2023-11-21T07:09:48;10.70;;;5.93;;
60726;SDS011;46577;49.004;12.120;2023-11-21T07:12:14;14.37;;;6.07;;
60726;SDS011;46577;49.004;12.120;2023-11-21T07:14:40;13.10;;;6.07;;
60726;SDS011;46577;49.004;12.120;2023-11-21T07:17:08;14.30;;;5.50;;
60726;SDS011;46577;49.004;12.120;2023-11-21T07:19:34;10.77;;;5.50;;
60726;SDS011;46577;49.004;12.120;2023-11-21T07:22:00;9.70;;;5.10;;
60726;SDS011;46577;49.004;12.120;2023-11-21T07:24:26;17.70;;;6.27;;
60726;SDS011;46577;49.004;12.120;2023-11-21T07:26:52;15.37;;;6.53;;
60726;SDS011;46577;49.004;12.120;2023-11-21T07:29:21;16.47;;;6.70;;
60726;SDS011;46577;49.004;12.120;2023-11-21T07:31:47;8.70;;;5.40;;
60726;SDS011;46577;49.004;12.120;2023-11-21T07:34:13;12.70;;;6.27;;
60726;SDS011;46577;49.004;12.120;2023-11-21T07:36:39;12.83;;;6.20;;
60726;SDS011;46577;49.004;12.120;2023-11-21T07:39:05;11.03;;;6.67;;
60726;SDS011;46577;49.004;12.120;2023-11-21T07:41:31;15.87;;;6.50;;
60726;SDS011;46577;49.004;12.120;2023-11-21T07:43:57;10.10;;;5.50;;
60726;SDS011;46577;49.004;12.120;2023-11-21T07:46:23;16.93;;;6.60;;
60726;SDS011;46577;49.004;12.120;2023-11-21T07:48:51;10.70;;;5.30;;
60726;SDS011;46577;49.004;12.120;2023-11-21T07:51:17;14.53;;;6.23;;
60726;SDS011;46577;49.004;12.120;2023-11-21T07:53:43;14.60;;;6.50;;
60726;SDS011;46577;49.004;12.120;2023-11-21T07:56:09;15.90;;;6.47;;
60726;SDS011;46577;49.004;12.120;2023-11-21T07:58:36;12.40;;;6.10;;
60726;SDS011;46577;49.004;12.120;2023-11-21T08:01:02;10.73;;;6.07;;
60726;SDS011;46577;49.004;12.120;2023-11-21T08:03:28;11.00;;;6.07;;
60726;SDS011;46577;49.004;12.120;2023-11-21T08:05:55;12.60;;;6.83;;
60726;SDS011;46577;49.004;12.120;2023-11-21T08:08:21;13.23;;;6.23;;
60726;SDS011;46577;49.004;12.120;2023-11-21T08:10:48;10.50;;;5.93;;
60726;SDS011;46577;49.004;12.120;2023-11-21T08:13:22;8.80;;;5.43;;
60726;SDS011;46577;49.004;12.120;2023-11-21T08:15:48;14.37;;;7.00;;
60726;SDS011;46577;49.004;12.120;2023-11-21T08:18:14;10.27;;;5.90;;
60726;SDS011;46577;49.004;12.120;2023-11-21T08:20:41;17.20;;;5.23;;
60726;SDS011;46577;49.004;12.120;2023-11-21T08:23:07;10.17;;;5.37;;
60726;SDS011;46577;49.004;12.120;2023-11-21T08:25:33;12.80;;;5.30;;
60726;SDS011;46577;49.004;12.120;2023-11-21T08:27:59;10.30;;;5.43;;
60726;SDS011;46577;49.004;12.120;2023-11-21T08:30:26;10.50;;;5.80;;
60726;SDS011;46577;49.004;12.120;2023-11-21T08:32:55;11.20;;;5.93;;
60726;SDS011;46577;49.004;12.120;2023-11-21T08:35:23;12.60;;;6.90;;
60726;SDS011;46577;49.004;12.120;2023-11-21T08:37:51;11.50;;;6.00;;
60726;SDS011;46577;49.004;12.120;2023-11-21T08:40:18;7.40;;;4.93;;
60726;SDS011;46577;49.004;12.120;2023-11-21T08:42:44;8.87;;;5.53;;
60726;SDS011;46577;49.004;12.120;2023-11-21T08:45:11;12.50;;;5.50;;
60726;SDS011;46577;49.004;12.120;2023-11-21T08:47:38;7.70;;;5.07;;
60726;SDS011;46577;49.004;12.120;2023-11-21T08:50:05;8.60;;;5.03;;
60726;SDS011;46577;49.004;12.120;2023-11-21T08:52:33;8.20;;;4.23;;
60726;SDS011;46577;49.004;12.120;2023-11-21T08:54:59;12.30;;;5.70;;
60726;SDS011;46577;49.004;12.120;2023-11-21T08:57:32;9.00;;;5.27;;
60726;SDS011;46577;49.004;12.120;2023-11-21T08:59:58;9.40;;;5.03;;
60726;SDS011;46577;49.004;12.120;2023-11-21T09:02:27;9.40;;;4.57;;
60726;SDS011;46577;49.004;12.120;2023-11-21T09:04:53;9.13;;;5.57;;
60726;SDS011;46577;49.004;12.120;2023-11-21T09:07:19;10.90;;;6.30;;
60726;SDS011;46577;49.004;12.120;2023-11-21T09:09:46;11.70;;;6.17;;
60726;SDS011;46577;49.004;12.120;2023-11-21T09:12:12;19.30;;;5.53;;
60726;SDS011;46577;49.004;12.120;2023-11-21T09:14:38;18.93;;;5.37;;
60726;SDS011;46577;49.004;12.120;2023-11-21T09:17:05;9.20;;;5.30;;
60726;SDS011;46577;49.004;12.120;2023-11-21T09:19:39;10.70;;;5.43;;
60726;SDS011;46577;49.004;12.120;2023-11-21T09:22:05;11.50;;;5.13;;
60726;SDS011;46577;49.004;12.120;2023-11-21T09:24:34;11.17;;;5.93;;
60726;SDS011;46577;49.004;12.120;2023-11-21T09:27:00;6.77;;;5.07;;
60726;SDS011;46577;49.004;12.120;2023-11-21T09:29:26;13.03;;;5.67;;
60726;SDS011;46577;49.004;12.120;2023-11-21T09:31:52;11.37;;;5.63;;
60726;SDS011;46577;49.004;12.120;2023-11-21T09:34:19;10.60;;;4.57;;
60726;SDS011;46577;49.004;12.120;2023-11-21T09:36:45;10.57;;;5.10;;
60726;SDS011;46577;49.004;12.120;2023-11-21T09:39:11;8.90;;;5.13;;
60726;SDS011;46577;49.004;12.120;2023-11-21T09:41:52;9.53;;;5.50;;
60726;SDS011;46577;49.004;12.120;2023-11-21T09:44:35;7.30;;;4.83;;
60726;SDS011;46577;49.004;12.120;2023-11-21T09:47:02;11.40;;;4.70;;
60726;SDS011;46577;49.004;12.120;2023-11-21T09:49:28;13.57;;;4.70;;
60726;SDS011;46577;49.004;12.120;2023-11-21T09:52:00;9.60;;;5.00;;
60726;SDS011;46577;49.004;12.120;2023-11-21T09:54:28;8.73;;;4.90;;
60726;SDS011;46577;49.004;12.120;2023-11-21T09:56:56;10.33;;;4.40;;
60726;SDS011;46577;49.004;12.120;2023-11-21T09:59:23;7.07;;;4.67;;
60726;SDS011;46577;49.004;12.120;2023-11-21T10:01:49;5.50;;;3.83;;
60726;SDS011;46577;49.004;12.120;2023-11-21T10:04:15;4.77;;;2.90;;
60726;SDS011;46577;49.004;12.120;2023-11-21T10:06:42;8.57;;;4.43;;
60726;SDS011;46577;49.004;12.120;2023-11-21T10:09:13;9.40;;;4.63;;
60726;SDS011;46577;49.004;12.120;2023-11-21T10:11:40;12.47;;;5.40;;
60726;SDS011;46577;49.004;12.120;2023-11-21T10:14:08;13.37;;;5.03;;
60726;SDS011;46577;49.004;12.120;2023-11-21T10:16:35;8.43;;;3.90;;
60726;SDS011;46577;49.004;12.120;2023-11-21T10:19:02;7.97;;;3.63;;
60726;SDS011;46577;49.004;12.120;2023-11-21T10:21:30;6.47;;;3.03;;
60726;SDS011;46577;49.004;12.120;2023-11-21T10:23:56;5.03;;;2.77;;
60726;SDS011;46577;49.004;12.120;2023-11-21T10:26:22;6.50;;;3.10;;
60726;SDS011;46577;49.004;12.120;2023-11-21T10:28:55;4.50;;;3.00;;
60726;SDS011;46577;49.004;12.120;2023-11-21T10:31:22;8.30;;;3.47;;
60726;SDS011;46577;49.004;12.120;2023-11-21T10:33:49;3.57;;;2.80;;
60726;SDS011;46577;49.004;12.120;2023-11-21T10:36:24;10.33;;;3.30;;
60726;SDS011;46577;49.004;12.120;2023-11-21T10:38:51;4.57;;;2.83;;
60726;SDS011;46577;49.004;12.120;2023-11-21T10:41:18;3.60;;;2.73;;
60726;SDS011;46577;49.004;12.120;2023-11-21T10:43:44;7.07;;;3.00;;
60726;SDS011;46577;49.004;12.120;2023-11-21T10:46:10;5.47;;;2.93;;
60726;SDS011;46577;49.004;12.120;2023-11-21T10:48:36;5.07;;;2.23;;
60726;SDS011;46577;49.004;12.120;2023-11-21T10:51:06;2.70;;;2.47;;
60726;SDS011;46577;49.004;12.120;2023-11-21T10:53:32;3.50;;;2.70;;
60726;SDS011;46577;49.004;12.120;2023-11-21T10:56:02;2.47;;;1.97;;
60726;SDS011;46577;49.004;12.120;2023-11-21T10:58:32;3.90;;;2.53;;
60726;SDS011;46577;49.004;12.120;2023-11-21T11:00:58;3.83;;;2.23;;
60726;SDS011;46577;49.004;12.120;2023-11-21T11:03:25;3.90;;;2.20;;
60726;SDS011;46577;49.004;12.120;2023-11-21T11:05:51;2.60;;;2.10;;
60726;SDS011;46577;49.004;12.120;2023-11-21T11:08:20;4.40;;;1.93;;
60726;SDS011;46577;49.004;12.120;2023-11-21T11:10:51;2.60;;;1.97;;
60726;SDS011;46577;49.004;12.120;2023-11-21T11:13:17;1.60;;;1.50;;
60726;SDS011;46577;49.004;12.120;2023-11-21T11:15:47;3.63;;;2.13;;
60726;SDS011;46577;49.004;12.120;2023-11-21T11:18:13;3.80;;;1.70;;
60726;SDS011;46577;49.004;12.120;2023-11-21T11:20:41;3.93;;;1.70;;
60726;SDS011;46577;49.004;12.120;2023-11-21T11:38:50;2.50;;;1.50;;
60726;SDS011;46577;49.004;12.120;2023-11-21T11:41:27;1.47;;;1.27;;
60726;SDS011;46577;49.004;12.120;2023-11-21T11:43:54;2.80;;;1.70;;
60726;SDS011;46577;49.004;12.120;2023-11-21T11:46:20;3.00;;;1.80;;
60726;SDS011;46577;49.004;12.120;2023-11-21T11:48:47;3.80;;;1.93;;
60726;SDS011;46577;49.004;12.120;2023-11-21T11:51:14;5.30;;;2.47;;
60726;SDS011;46577;49.004;12.120;2023-11-21T11:53:46;4.47;;;2.30;;
60726;SDS011;46577;49.004;12.120;2023-11-21T11:56:29;3.67;;;2.13;;
60726;SDS011;46577;49.004;12.120;2023-11-21T11:58:57;3.90;;;2.27;;
60726;SDS011;46577;49.004;12.120;2023-11-21T12:01:26;5.30;;;2.17;;
60726;SDS011;46577;49.004;12.120;2023-11-21T12:04:23;8.73;;;2.43;;
60726;SDS011;46577;49.004;12.120;2023-11-21T12:06:52;3.63;;;2.47;;
60726;SDS011;46577;49.004;12.120;2023-11-21T12:09:20;3.87;;;3.07;;
60726;SDS011;46577;49.004;12.120;2023-11-21T12:11:47;13.50;;;3.60;;
60726;SDS011;46577;49.004;12.120;2023-11-21T12:14:14;12.00;;;2.63;;
60726;SDS011;46577;49.004;12.120;2023-11-21T12:16:40;7.27;;;2.70;;
60726;SDS011;46577;49.004;12.120;2023-11-21T12:19:07;2.70;;;2.27;;
60726;SDS011;46577;49.004;12.120;2023-11-21T12:21:33;4.60;;;2.33;;
60726;SDS011;46577;49.004;12.120;2023-11-21T12:24:00;3.30;;;2.60;;
60726;SDS011;46577;49.004;12.120;2023-11-21T12:26:26;4.53;;;2.73;;
60726;SDS011;46577;49.004;12.120;2023-11-21T12:28:52;4.40;;;2.50;;
60726;SDS011;46577;49.004;12.120;2023-11-21T12:31:21;11.67;;;2.40;;
60726;SDS011;46577;49.004;12.120;2023-11-21T12:33:47;5.53;;;3.03;;
60726;SDS011;46577;49.004;12.120;2023-11-21T12:36:13;3.30;;;2.70;;
60726;SDS011;46577;49.004;12.120;2023-11-21T12:38:40;4.10;;;3.10;;
60726;SDS011;46577;49.004;12.120;2023-11-21T12:41:07;4.23;;;2.93;;
60726;SDS011;46577;49.004;12.120;2023-11-21T12:43:33;5.83;;;2.90;;
60726;SDS011;46577;49.004;12.120;2023-11-21T12:46:06;5.50;;;2.70;;
60726;SDS011;46577;49.004;12.120;2023-11-21T12:48:34;2.83;;;2.63;;
60726;SDS011;46577;49.004;12.120;2023-11-21T12:51:04;5.70;;;3.00;;
60726;SDS011;46577;49.004;12.120;2023-11-21T12:53:30;5.67;;;3.10;;
60726;SDS011;46577;49.004;12.120;2023-11-21T12:56:01;5.70;;;2.47;;
60726;SDS011;46577;49.004;12.120;2023-11-21T12:58:28;7.80;;;2.90;;
60726;SDS011;46577;49.004;12.120;2023-11-21T13:00:54;3.03;;;2.70;;
60726;SDS011;46577;49.004;12.120;2023-11-21T13:03:22;3.40;;;2.30;;
60726;SDS011;46577;49.004;12.120;2023-11-21T13:05:51;4.50;;;2.50;;
60726;SDS011;46577;49.004;12.120;2023-11-21T13:08:20;2.33;;;2.10;;
60726;SDS011;46577;49.004;12.120;2023-11-21T13:10:49;5.30;;;2.50;;
60726;SDS011;46577;49.004;12.120;2023-11-21T13:13:15;3.37;;;2.33;;
60726;SDS011;46577;49.004;12.120;2023-11-21T13:15:47;3.20;;;2.33;;
60726;SDS011;46577;49.004;12.120;2023-11-21T13:18:13;5.97;;;2.17;;
60726;SDS011;46577;49.004;12.120;2023-11-21T13:20:41;5.13;;;3.07;;
60726;SDS011;46577;49.004;12.120;2023-11-21T13:23:08;7.23;;;2.93;;
60726;SDS011;46577;49.004;12.120;2023-11-21T13:25:37;10.10;;;2.93;;
60726;SDS011;46577;49.004;12.120;2023-11-21T13:28:04;4.03;;;2.60;;
60726;SDS011;46577;49.004;12.120;2023-11-21T13:30:30;7.90;;;2.77;;
60726;SDS011;46577;49.004;12.120;2023-11-21T13:32:59;3.70;;;2.67;;
60726;SDS011;46577;49.004;12.120;2023-11-21T13:35:30;9.47;;;2.97;;
60726;SDS011;46577;49.004;12.120;2023-11-21T13:38:13;5.00;;;2.93;;
60726;SDS011;46577;49.004;12.120;2023-11-21T13:40:49;4.70;;;2.87;;
60726;SDS011;46577;49.004;12.120;2023-11-21T13:43:17;6.80;;;4.00;;
60726;SDS011;46577;49.004;12.120;2023-11-21T13:45:45;4.63;;;3.50;;
60726;SDS011;46577;49.004;12.120;2023-11-21T13:48:12;5.97;;;2.83;;
60726;SDS011;46577;49.004;12.120;2023-11-21T13:50:47;3.27;;;2.60;;
60726;SDS011;46577;49.004;12.120;2023-11-21T13:53:32;8.20;;;2.90;;
60726;SDS011;46577;49.004;12.120;2023-11-21T13:56:01;4.53;;;3.20;;
60726;SDS011;46577;49.004;12.120;2023-11-21T13:58:27;9.67;;;3.87;;
60726;SDS011;46577;49.004;12.120;2023-11-21T14:01:16;3.90;;;3.10;;
60726;SDS011;46577;49.004;12.120;2023-11-21T14:03:54;5.23;;;3.20;;
60726;SDS011;46577;49.004;12.120;2023-11-21T14:06:27;6.23;;;3.00;;
60726;SDS011;46577;49.004;12.120;2023-11-21T14:08:59;6.40;;;2.77;;
60726;SDS011;46577;49.004;12.120;2023-11-21T14:11:31;3.53;;;2.60;;
60726;SDS011;46577;49.004;12.120;2023-11-21T14:13:59;5.83;;;2.90;;
60726;SDS011;46577;49.004;12.120;2023-11-21T14:16:25;10.30;;;3.10;;
60726;SDS011;46577;49.004;12.120;2023-11-21T14:18:51;5.47;;;3.50;;
60726;SDS011;46577;49.004;12.120;2023-11-21T14:21:23;5.20;;;2.53;;
60726;SDS011;46577;49.004;12.120;2023-11-21T14:23:49;4.20;;;2.70;;
60726;SDS011;46577;49.004;12.120;2023-11-21T14:26:15;3.70;;;2.60;;
60726;SDS011;46577;49.004;12.120;2023-11-21T14:28:41;5.27;;;2.60;;
60726;SDS011;46577;49.004;12.120;2023-11-21T14:31:08;5.07;;;2.53;;
60726;SDS011;46577;49.004;12.120;2023-11-21T14:33:40;6.20;;;2.60;;
60726;SDS011;46577;49.004;12.120;2023-11-21T14:36:06;3.20;;;2.50;;
60726;SDS011;46577;49.004;12.120;2023-11-21T14:38:35;3.77;;;2.60;;
60726;SDS011;46577;49.004;12.120;2023-11-21T14:41:05;4.63;;;2.50;;
60726;SDS011;46577;49.004;12.120;2023-11-21T14:43:34;4.50;;;2.83;;
60726;SDS011;46577;49.004;12.120;2023-11-21T14:46:01;6.10;;;2.63;;